Current Weather

Mors Muni - JR Washburn Field

Mors Muni - JR Washburn Field, Illinois (KC09)

Report from: Tuesday, July 16, 2024 3:35 AM CDT
Current time: Tuesday, July 16, 2024 4:07 AM CDT

Nearby weather – Weather history – Daily summaries
Weather forecast

Temperature20.0°C (68.0°F)
Dew point20.0°C (68.0°F)
Winds Calm
Visibility10 mi. (16.1 km)
Clouds Sky clear
Altimeter29.77 in.Hg (1008 mB)
Relative humidity100 %
Density altitude1,075 ft. (328 m)
Remarks Fully automated report
Automated weather observing station with precipitation discriminator
Lightning observed
Distant southeast
Flight conditions Visual Meteorological Conditions
Raw dataKC09 160835Z AUTO 00000KT 10SM CLR 20/20 A2977 RMK AO2 LTG DSNT SE T02000200
An error has occurred. This application may no longer respond until reloaded. Reload 🗙